Time;durP1;ratioP1;P1;durP2;ratioP2;P2;SDS_P1;SDS_P2;PMS_P1;PMS_P2;Temp;Humidity;BMP_temperature;BMP_pressure;BME280_temperature;BME280_humidity;BME280_pressure;Samples;Min_cycle;Max_cycle;Signal;HPM_P1;HPM_P2
2022/12/25 00:01:37;;;;;;;1.95;0.60;;;17.80;66.80;;;;;;7404852;19;20364;-63
2022/12/25 00:04:06;;;;;;;2.40;1.25;;;17.80;66.80;;;;;;7404482;19;19919;-64
2022/12/25 00:06:35;;;;;;;2.20;0.98;;;17.80;66.90;;;;;;7404990;19;19974;-63
2022/12/25 00:09:04;;;;;;;1.85;0.52;;;17.70;66.90;;;;;;7404558;19;19922;-64
2022/12/25 00:11:34;;;;;;;1.70;0.30;;;17.70;66.90;;;;;;7405236;19;20364;-63
2022/12/25 00:14:07;;;;;;;2.60;0.32;;;17.70;67.00;;;;;;7408936;19;19922;-63
2022/12/25 00:16:37;;;;;;;2.45;0.50;;;17.70;67.10;;;;;;7402854;19;19922;-63
2022/12/25 00:19:06;;;;;;;2.20;0.80;;;17.70;67.10;;;;;;7404398;19;19914;-63
2022/12/25 00:21:35;;;;;;;2.40;0.57;;;17.70;67.10;;;;;;7404677;19;19921;-63
2022/12/25 00:24:04;;;;;;;1.38;0.22;;;17.70;67.00;;;;;;7404509;19;19944;-63
2022/12/25 00:26:34;;;;;;;1.75;0.40;;;17.70;67.00;;;;;;7404173;19;19978;-63
2022/12/25 00:29:03;;;;;;;1.73;0.30;;;17.70;67.00;;;;;;7403793;19;20359;-63
2022/12/25 00:31:35;;;;;;;1.90;0.47;;;17.70;66.90;;;;;;7404129;19;20576;-63
2022/12/25 00:34:04;;;;;;;1.70;0.60;;;17.70;66.90;;;;;;7403786;19;19935;-63
2022/12/25 00:36:33;;;;;;;2.72;0.60;;;17.80;66.90;;;;;;7404099;19;19939;-63
2022/12/25 00:39:02;;;;;;;2.15;0.30;;;17.80;66.90;;;;;;7402642;19;19919;-63
2022/12/25 00:44:15;;;;;;;1.80;0.47;;;17.80;66.80;;;;;;7405476;19;19917;-64
2022/12/25 00:46:46;;;;;;;2.28;0.35;;;17.90;66.70;;;;;;7403782;19;19925;-63
2022/12/25 00:49:16;;;;;;;2.00;0.95;;;17.90;66.60;;;;;;7403837;19;19986;-64
2022/12/25 00:51:44;;;;;;;1.80;0.55;;;18.00;66.60;;;;;;7405029;19;19915;-64
2022/12/25 00:54:14;;;;;;;2.50;0.52;;;18.00;66.50;;;;;;7403899;19;20345;-64
2022/12/25 00:56:43;;;;;;;1.73;0.40;;;18.10;66.50;;;;;;7403679;19;19966;-64
2022/12/25 00:59:12;;;;;;;1.55;0.50;;;18.10;66.40;;;;;;7403232;19;19932;-63
2022/12/25 01:01:42;;;;;;;2.17;0.70;;;18.20;66.30;;;;;;7403248;19;19914;-63
2022/12/25 01:04:14;;;;;;;1.27;0.77;;;18.20;66.20;;;;;;7402811;19;19974;-63
2022/12/25 01:06:43;;;;;;;2.25;1.05;;;18.20;66.20;;;;;;7403538;19;19915;-63
2022/12/25 01:11:55;;;;;;;2.30;1.08;;;18.20;66.20;;;;;;7406322;19;19910;-63
2022/12/25 01:14:24;;;;;;;2.20;0.60;;;18.20;66.20;;;;;;7399823;19;19925;-63
2022/12/25 01:16:53;;;;;;;1.83;0.63;;;18.20;66.20;;;;;;7402781;19;20251;-63
2022/12/25 01:19:25;;;;;;;1.70;0.20;;;18.20;66.10;;;;;;7401209;19;19937;-64
2022/12/25 01:21:55;;;;;;;2.10;0.63;;;18.10;66.10;;;;;;7402740;19;19915;-64
2022/12/25 01:24:25;;;;;;;1.45;0.82;;;18.10;66.10;;;;;;7400724;19;19992;-63
2022/12/25 01:26:55;;;;;;;1.75;0.70;;;18.10;66.10;;;;;;7405904;19;19918;-64
2022/12/25 01:29:24;;;;;;;1.45;0.40;;;18.10;66.20;;;;;;7407630;19;19918;-63
2022/12/25 01:32:02;;;;;;;1.60;0.40;;;18.10;66.20;;;;;;7409341;19;20300;-63
2022/12/25 01:34:34;;;;;;;2.13;0.85;;;18.00;66.20;;;;;;7409047;19;20280;-63
2022/12/25 01:37:03;;;;;;;2.05;0.38;;;18.00;66.20;;;;;;7407809;19;19922;-63
2022/12/25 01:39:34;;;;;;;1.42;0.40;;;18.00;66.20;;;;;;7409478;19;19931;-63
2022/12/25 01:42:03;;;;;;;2.05;0.50;;;18.00;66.30;;;;;;7409421;19;19921;-63
2022/12/25 01:45:02;;;;;;;1.88;0.52;;;17.90;66.20;;;;;;7408973;19;19906;-63
2022/12/25 01:47:32;;;;;;;1.48;0.43;;;17.90;66.30;;;;;;7408795;19;19914;-64
2022/12/25 01:50:10;;;;;;;1.55;0.45;;;17.90;66.40;;;;;;7409214;19;19982;-63
2022/12/25 01:52:39;;;;;;;2.25;0.80;;;17.90;66.50;;;;;;7408757;19;19919;-63
2022/12/25 01:55:10;;;;;;;1.58;0.30;;;17.80;66.40;;;;;;7408312;19;19922;-63
2022/12/25 01:57:41;;;;;;;2.05;0.40;;;17.80;66.50;;;;;;7409133;19;19915;-63
2022/12/25 02:00:12;;;;;;;1.88;0.52;;;17.70;66.60;;;;;;7407792;19;19983;-63
2022/12/25 02:02:43;;;;;;;1.88;1.40;;;17.70;66.60;;;;;;7408396;19;19932;-63
2022/12/25 02:05:30;;;;;;;1.85;0.38;;;17.70;66.70;;;;;;7408415;19;19914;-63
2022/12/25 02:08:02;;;;;;;2.55;0.60;;;17.70;66.80;;;;;;7408601;19;19938;-63
2022/12/25 02:10:31;;;;;;;1.83;0.38;;;17.60;66.70;;;;;;7410732;19;19926;-63
2022/12/25 02:13:08;;;;;;;1.90;0.45;;;17.70;66.80;;;;;;7408402;19;20359;-63
2022/12/25 02:15:49;;;;;;;1.42;0.63;;;17.70;66.70;;;;;;7408190;19;19943;-64
2022/12/25 02:18:27;;;;;;;1.45;0.80;;;17.60;66.60;;;;;;7408207;19;20490;-63
2022/12/25 02:21:24;;;;;;;1.88;0.30;;;17.70;66.70;;;;;;7406840;19;20324;-63
2022/12/25 02:24:17;;;;;;;2.15;0.73;;;17.70;66.60;;;;;;7408119;19;19926;-63
2022/12/25 02:27:02;;;;;;;1.73;0.63;;;17.70;66.60;;;;;;7407809;19;19939;-63
2022/12/25 02:29:44;;;;;;;2.00;1.20;;;17.70;66.50;;;;;;7406504;19;19925;-63
2022/12/25 02:32:22;;;;;;;1.65;0.32;;;17.70;66.50;;;;;;7407226;19;19992;-64
2022/12/25 02:34:56;;;;;;;1.77;0.52;;;17.80;66.50;;;;;;7407273;19;19917;-63
2022/12/25 02:37:30;;;;;;;2.08;0.43;;;17.80;66.40;;;;;;7407880;19;19914;-63
2022/12/25 02:40:01;;;;;;;1.98;1.00;;;17.90;66.40;;;;;;7406918;19;19938;-63
2022/12/25 03:07:22;;;;;;;1.35;0.35;;;18.20;65.80;;;;;;7407433;19;19921;-63
2022/12/25 03:12:47;;;;;;;1.15;0.28;;;18.20;65.80;;;;;;7406316;19;19936;-63
2022/12/25 03:18:08;;;;;;;1.70;0.43;;;18.10;65.80;;;;;;7406990;19;19918;-63
2022/12/25 03:28:50;;;;;;;2.42;0.88;;;18.00;65.90;;;;;;7403054;19;19923;-63
2022/12/25 03:31:24;;;;;;;1.60;1.10;;;18.00;65.90;;;;;;7406441;19;19918;-63
2022/12/25 03:37:14;;;;;;;1.45;0.20;;;17.90;66.00;;;;;;7406117;19;19919;-63
2022/12/25 04:37:11;;;;;;;1.70;0.47;;;18.10;65.90;;;;;;7404253;19;19918;-63
2022/12/25 04:39:42;;;;;;;1.73;0.55;;;18.10;65.80;;;;;;7407760;19;19930;-63
2022/12/25 04:42:11;;;;;;;1.90;0.65;;;18.20;65.80;;;;;;7402491;19;19922;-63
2022/12/25 04:44:43;;;;;;;1.90;0.43;;;18.10;65.70;;;;;;7403674;19;19974;-63
2022/12/25 04:47:13;;;;;;;1.45;0.30;;;18.20;65.80;;;;;;7403581;19;19919;-63
2022/12/25 04:49:42;;;;;;;1.17;0.30;;;18.20;65.70;;;;;;7403750;19;19922;-63
2022/12/25 04:52:11;;;;;;;1.30;0.25;;;18.10;65.60;;;;;;7403599;19;19946;-63
2022/12/25 04:54:43;;;;;;;1.40;0.65;;;18.20;65.70;;;;;;7404135;19;20239;-63
2022/12/25 04:57:12;;;;;;;1.75;0.45;;;18.10;65.60;;;;;;7403627;19;19981;-63
2022/12/25 04:59:45;;;;;;;1.35;0.38;;;18.10;65.60;;;;;;7403870;19;19914;-63
2022/12/25 05:02:14;;;;;;;1.50;0.30;;;18.10;65.60;;;;;;7404522;19;20332;-63
2022/12/25 05:04:43;;;;;;;1.30;0.20;;;18.10;65.60;;;;;;7409920;19;19946;-63
2022/12/25 05:07:12;;;;;;;1.23;0.25;;;18.10;65.60;;;;;;7409936;19;19946;-63
2022/12/25 05:09:43;;;;;;;1.80;0.77;;;18.10;65.60;;;;;;7414290;19;19919;-63
2022/12/25 05:12:14;;;;;;;2.60;1.08;;;18.10;65.70;;;;;;7410580;19;20228;-63
2022/12/25 05:14:49;;;;;;;1.50;0.30;;;18.00;65.70;;;;;;7407119;19;19919;-63
2022/12/25 05:17:19;;;;;;;1.00;0.22;;;18.00;65.70;;;;;;7409519;19;20259;-63
2022/12/25 05:19:48;;;;;;;1.65;0.45;;;17.90;65.70;;;;;;7409403;19;19914;-64
2022/12/25 05:22:17;;;;;;;1.38;0.30;;;18.00;65.90;;;;;;7406979;19;19981;-63
2022/12/25 05:24:49;;;;;;;0.98;0.22;;;17.90;65.80;;;;;;7410993;19;19919;-63
2022/12/25 05:27:18;;;;;;;1.80;0.30;;;17.90;66.50;;;;;;7410059;19;19948;-63
2022/12/25 05:29:47;;;;;;;2.38;1.00;;;17.90;65.90;;;;;;7407077;19;19914;-63
2022/12/25 05:32:16;;;;;;;1.67;0.73;;;17.80;66.00;;;;;;7409240;19;20273;-63
2022/12/25 05:34:45;;;;;;;1.55;0.68;;;17.80;66.00;;;;;;7409908;19;20286;-63
2022/12/25 05:37:15;;;;;;;1.40;0.22;;;17.80;66.00;;;;;;7410642;19;19978;-63
2022/12/25 05:39:44;;;;;;;2.08;0.50;;;17.70;66.00;;;;;;7409309;19;19922;-63
2022/12/25 05:42:15;;;;;;;1.38;0.55;;;17.70;66.10;;;;;;7406747;19;20322;-63
2022/12/25 05:44:45;;;;;;;1.25;0.30;;;17.80;66.10;;;;;;7409178;19;20347;-63
2022/12/25 05:47:14;;;;;;;2.10;0.98;;;17.70;66.00;;;;;;7409379;19;19914;-63
2022/12/25 05:49:43;;;;;;;1.38;0.50;;;17.70;66.00;;;;;;7408876;19;20347;-63
2022/12/25 05:52:12;;;;;;;2.28;0.40;;;17.80;66.10;;;;;;7408922;19;19918;-63
2022/12/25 05:54:42;;;;;;;1.98;0.95;;;17.70;66.00;;;;;;7408743;19;19926;-63
2022/12/25 05:57:11;;;;;;;2.22;0.90;;;17.80;66.00;;;;;;7408822;19;20265;-63
2022/12/25 05:59:42;;;;;;;2.15;0.43;;;17.80;66.00;;;;;;7408400;19;19978;-63
2022/12/25 06:02:12;;;;;;;2.22;1.20;;;17.80;66.00;;;;;;7406164;19;20350;-63
2022/12/25 06:04:41;;;;;;;2.47;0.32;;;17.90;66.00;;;;;;7408508;19;19915;-63
2022/12/25 06:07:10;;;;;;;1.85;0.43;;;17.90;66.00;;;;;;7410214;19;20434;-63
2022/12/25 06:09:40;;;;;;;2.42;0.75;;;17.90;65.90;;;;;;7408261;19;19915;-63
2022/12/25 06:12:11;;;;;;;1.88;1.13;;;18.00;65.90;;;;;;7408104;19;19923;-63
2022/12/25 06:14:42;;;;;;;1.50;0.30;;;18.00;65.80;;;;;;7404770;19;19922;-63
2022/12/25 06:17:12;;;;;;;1.40;0.22;;;18.00;65.70;;;;;;7408771;19;19918;-63
2022/12/25 06:19:46;;;;;;;2.17;0.88;;;18.10;65.70;;;;;;7407677;19;20272;-63
2022/12/25 06:22:15;;;;;;;2.00;0.90;;;18.10;65.70;;;;;;7406522;19;19922;-63
2022/12/25 06:24:44;;;;;;;1.90;0.52;;;18.20;65.60;;;;;;7408557;19;19926;-63
2022/12/25 06:27:13;;;;;;;1.77;0.32;;;18.20;65.60;;;;;;7408046;19;19911;-63
2022/12/25 06:29:45;;;;;;;2.10;0.80;;;18.20;65.50;;;;;;7406017;19;19918;-63
2022/12/25 06:32:14;;;;;;;2.40;0.90;;;18.20;65.40;;;;;;7407629;19;19974;-63
2022/12/25 06:34:43;;;;;;;1.70;1.23;;;18.20;65.50;;;;;;7407426;19;19914;-63
2022/12/25 06:37:12;;;;;;;2.00;0.30;;;18.20;65.50;;;;;;7408467;19;19923;-64
2022/12/25 06:39:41;;;;;;;2.00;0.77;;;18.20;65.40;;;;;;7408217;19;19970;-63
2022/12/25 06:42:10;;;;;;;2.65;1.77;;;18.20;65.40;;;;;;7406731;19;19955;-63
2022/12/25 06:44:46;;;;;;;2.78;0.82;;;18.20;65.40;;;;;;7407262;19;20260;-63
2022/12/25 06:47:16;;;;;;;2.88;0.73;;;18.20;65.40;;;;;;7407806;19;19919;-63
2022/12/25 06:49:45;;;;;;;1.98;0.65;;;18.20;65.40;;;;;;7407597;19;19918;-63
2022/12/25 06:52:14;;;;;;;1.95;0.50;;;18.10;65.40;;;;;;7407275;19;19918;-63
2022/12/25 06:54:43;;;;;;;2.80;1.15;;;18.10;65.40;;;;;;7407103;19;20271;-64
2022/12/25 06:57:12;;;;;;;2.08;1.02;;;18.10;65.40;;;;;;7406989;19;19915;-63
2022/12/25 06:59:42;;;;;;;2.42;0.57;;;18.10;65.40;;;;;;7407564;19;19918;-63
2022/12/25 07:02:18;;;;;;;2.25;1.23;;;18.10;65.50;;;;;;7405702;19;19982;-63
2022/12/25 07:04:48;;;;;;;1.50;0.30;;;18.00;65.50;;;;;;7407264;19;19925;-63
2022/12/25 07:07:17;;;;;;;3.40;0.88;;;18.00;65.50;;;;;;7406893;19;19922;-64
2022/12/25 07:09:46;;;;;;;2.70;0.60;;;18.00;65.50;;;;;;7407002;19;19919;-63
2022/12/25 07:12:19;;;;;;;1.63;0.63;;;18.00;65.60;;;;;;7406640;19;20376;-63
2022/12/25 07:14:48;;;;;;;3.60;1.30;;;17.90;65.70;;;;;;7404428;19;19926;-63
2022/12/25 07:17:21;;;;;;;2.75;1.10;;;17.90;65.80;;;;;;7406659;19;20300;-63
2022/12/25 07:19:51;;;;;;;2.60;0.80;;;17.90;65.80;;;;;;7406216;19;19926;-63
2022/12/25 07:22:21;;;;;;;2.85;1.15;;;17.80;65.80;;;;;;7404801;19;19962;-63
2022/12/25 07:24:50;;;;;;;2.80;0.40;;;17.80;65.90;;;;;;7406448;19;19921;-63
2022/12/25 07:27:19;;;;;;;3.17;0.70;;;17.80;66.00;;;;;;7406103;19;20342;-63
2022/12/25 07:29:48;;;;;;;2.53;0.30;;;17.80;66.00;;;;;;7405180;19;19919;-63
2022/12/25 07:32:20;;;;;;;2.15;0.65;;;17.80;66.00;;;;;;7406135;19;19918;-63
2022/12/25 07:34:49;;;;;;;1.88;0.38;;;17.70;66.00;;;;;;7405983;19;19925;-63
2022/12/25 07:37:18;;;;;;;3.30;0.40;;;17.70;66.00;;;;;;7409895;19;19918;-63
2022/12/25 07:39:47;;;;;;;1.90;0.88;;;17.80;66.00;;;;;;7405916;19;20256;-63
2022/12/25 07:42:16;;;;;;;1.00;0.28;;;17.80;66.00;;;;;;7405434;19;19919;-63
2022/12/25 07:44:45;;;;;;;1.98;0.38;;;17.80;66.00;;;;;;7405587;19;20350;-63
2022/12/25 07:47:16;;;;;;;1.55;0.60;;;17.80;66.00;;;;;;7405487;19;19986;-63
2022/12/25 07:49:48;;;;;;;2.08;0.43;;;17.80;66.00;;;;;;7405709;19;19986;-63
2022/12/25 07:52:19;;;;;;;1.98;0.50;;;17.90;66.00;;;;;;7405660;19;20323;-63
2022/12/25 07:54:48;;;;;;;2.53;0.80;;;17.90;66.00;;;;;;7405467;19;19922;-63
2022/12/25 07:57:17;;;;;;;2.63;0.55;;;17.90;66.00;;;;;;7405794;19;19950;-63
2022/12/25 07:59:46;;;;;;;1.90;0.93;;;18.00;65.90;;;;;;7405376;19;19926;-63
2022/12/25 08:02:15;;;;;;;1.83;0.55;;;18.00;65.90;;;;;;7403750;19;19995;-63
2022/12/25 08:04:47;;;;;;;1.92;0.60;;;18.10;65.80;;;;;;7405563;19;19922;-63
2022/12/25 08:07:16;;;;;;;1.52;0.50;;;18.20;65.80;;;;;;7410131;19;19921;-63
2022/12/25 08:09:45;;;;;;;1.58;0.20;;;18.20;65.70;;;;;;7405163;19;19937;-63
2022/12/25 08:12:14;;;;;;;3.38;0.43;;;18.20;65.70;;;;;;7404729;19;19949;-63
2022/12/25 08:14:44;;;;;;;1.88;0.35;;;18.30;65.60;;;;;;7403771;19;19941;-63
2022/12/25 08:17:13;;;;;;;2.40;0.52;;;18.30;65.60;;;;;;7404738;19;19915;-63
2022/12/25 08:19:42;;;;;;;1.85;0.60;;;18.30;65.50;;;;;;7404782;19;20315;-63
2022/12/25 08:22:14;;;;;;;2.22;1.10;;;18.30;65.50;;;;;;7404191;19;19994;-63
2022/12/25 08:24:43;;;;;;;1.65;0.50;;;18.30;65.40;;;;;;7404436;19;20394;-63
2022/12/25 08:27:12;;;;;;;2.65;0.65;;;18.30;65.40;;;;;;7404497;19;19915;-63
2022/12/25 08:29:46;;;;;;;2.75;0.52;;;18.30;65.50;;;;;;7403380;19;20335;-63
2022/12/25 08:32:15;;;;;;;;;;;18.30;65.50;;;;;;7406450;19;19932;-63
2022/12/25 08:34:44;;;;;;;2.03;0.93;;;18.20;65.50;;;;;;7406263;19;20335;-63
2022/12/25 08:37:18;;;;;;;2.33;0.60;;;18.20;65.40;;;;;;7402796;19;19922;-63
2022/12/25 08:39:48;;;;;;;1.80;0.30;;;18.20;65.40;;;;;;7404163;19;19929;-63
2022/12/25 08:42:17;;;;;;;2.47;0.75;;;18.20;65.40;;;;;;7403248;19;19919;-63
2022/12/25 08:44:46;;;;;;;2.50;0.43;;;18.20;65.40;;;;;;7403959;19;20324;-63
2022/12/25 08:47:15;;;;;;;2.15;0.50;;;18.10;65.40;;;;;;7403940;19;19914;-63
2022/12/25 08:49:44;;;;;;;1.48;0.43;;;18.20;65.50;;;;;;7403594;19;19994;-63
2022/12/25 08:52:14;;;;;;;1.92;0.47;;;18.10;65.50;;;;;;7403624;19;19914;-63
2022/12/25 08:54:47;;;;;;;;;;;18.10;65.50;;;;;;7405982;19;19930;-63
2022/12/25 08:57:16;;;;;;;1.42;0.30;;;18.10;65.70;;;;;;7403559;19;19919;-63
2022/12/25 08:59:45;;;;;;;1.67;0.30;;;18.00;65.60;;;;;;7403212;19;20391;-63
2022/12/25 09:02:14;;;;;;;1.73;0.55;;;18.00;65.70;;;;;;7402112;19;19911;-63
2022/12/25 09:04:43;;;;;;;1.67;0.98;;;18.00;65.70;;;;;;7405397;19;19918;-63
2022/12/25 09:07:13;;;;;;;1.80;0.50;;;18.00;65.80;;;;;;7403181;19;19941;-63
2022/12/25 09:09:42;;;;;;;1.98;0.68;;;17.90;65.80;;;;;;7403169;19;20375;-63
2022/12/25 09:12:14;;;;;;;1.90;0.55;;;17.90;65.90;;;;;;7403155;19;19914;-63
2022/12/25 09:14:43;;;;;;;1.73;0.40;;;17.90;66.00;;;;;;7401023;19;19927;-63
2022/12/25 09:17:12;;;;;;;1.60;0.22;;;17.80;66.00;;;;;;7403284;19;19922;-63
2022/12/25 09:19:41;;;;;;;1.45;0.85;;;17.80;66.10;;;;;;7403344;19;19910;-63
2022/12/25 09:22:10;;;;;;;1.80;0.50;;;17.80;66.10;;;;;;7402303;19;19938;-63
2022/12/25 09:24:42;;;;;;;1.65;0.50;;;17.80;66.20;;;;;;7403183;19;19934;-63
2022/12/25 09:27:14;;;;;;;1.88;0.50;;;17.70;66.20;;;;;;7402306;19;20340;-63
2022/12/25 09:29:43;;;;;;;2.75;0.80;;;17.80;66.30;;;;;;7400860;19;19915;-63
2022/12/25 09:32:13;;;;;;;2.38;0.73;;;17.70;66.20;;;;;;7401678;19;20292;-63
2022/12/25 09:34:42;;;;;;;1.65;0.20;;;17.80;66.20;;;;;;7402503;19;19957;-63
2022/12/25 09:37:12;;;;;;;1.98;0.57;;;17.80;66.20;;;;;;7405899;19;19942;-63
2022/12/25 09:39:41;;;;;;;2.28;0.75;;;17.80;66.20;;;;;;7401915;19;19911;-63
2022/12/25 09:42:18;;;;;;;1.58;0.22;;;17.80;66.20;;;;;;7402087;19;19949;-63
2022/12/25 09:44:52;;;;;;;2.17;0.50;;;17.80;66.20;;;;;;7402039;19;20466;-63
2022/12/25 09:47:24;;;;;;;1.60;0.22;;;17.90;66.20;;;;;;7402445;19;19907;-63
2022/12/25 09:49:58;;;;;;;1.90;0.40;;;17.90;66.20;;;;;;7407386;19;19931;-63
2022/12/25 09:52:41;;;;;;;1.60;0.25;;;18.00;66.20;;;;;;7408414;19;20354;-62
2022/12/25 09:55:17;;;;;;;2.50;0.38;;;18.00;66.10;;;;;;7408964;19;19953;-63
2022/12/25 09:57:52;;;;;;;2.25;0.30;;;18.10;66.10;;;;;;7409201;19;19914;-63
2022/12/25 10:00:31;;;;;;;2.22;0.40;;;18.10;66.00;;;;;;7406751;19;19914;-63
2022/12/25 10:03:12;;;;;;;2.47;0.50;;;18.10;65.90;;;;;;7408054;19;20340;-63
2022/12/25 10:06:10;;;;;;;1.98;1.02;;;18.20;65.90;;;;;;7408420;19;20334;-63
2022/12/25 10:08:54;;;;;;;;;;;18.20;65.80;;;;;;7410720;19;19932;-63
2022/12/25 10:11:32;;;;;;;2.03;0.30;;;18.20;66.00;;;;;;7407929;19;19915;-63
2022/12/25 10:14:25;;;;;;;3.13;0.65;;;18.20;65.80;;;;;;7406965;19;19926;-63
2022/12/25 10:17:03;;;;;;;2.28;1.00;;;18.20;65.70;;;;;;7408332;19;20352;-63
2022/12/25 10:19:42;;;;;;;2.15;1.15;;;18.20;65.70;;;;;;7407801;19;19914;-63
2022/12/25 10:22:16;;;;;;;2.10;0.63;;;18.20;65.70;;;;;;7407511;19;20369;-63
2022/12/25 10:24:50;;;;;;;1.30;0.25;;;18.20;65.70;;;;;;7408085;19;19966;-63
2022/12/25 10:27:31;;;;;;;1.55;0.50;;;18.20;65.70;;;;;;7408246;19;19914;-64
2022/12/25 10:30:07;;;;;;;2.30;1.15;;;18.20;65.70;;;;;;7405550;19;20235;-63
2022/12/25 10:32:37;;;;;;;1.88;0.40;;;18.20;65.70;;;;;;7407365;19;19978;-63
2022/12/25 10:35:13;;;;;;;1.98;0.70;;;18.20;65.70;;;;;;7410127;19;19919;-63
2022/12/25 10:37:44;;;;;;;1.38;0.68;;;18.10;65.70;;;;;;7407599;19;19934;-63
2022/12/25 10:40:31;;;;;;;1.90;0.95;;;18.10;65.70;;;;;;7407833;19;20267;-63
2022/12/25 10:43:09;;;;;;;1.95;0.98;;;18.10;65.80;;;;;;7406941;19;20320;-63
2022/12/25 10:45:48;;;;;;;2.00;0.85;;;18.10;65.80;;;;;;7407524;19;20263;-63
2022/12/25 10:48:23;;;;;;;2.15;0.93;;;18.00;65.80;;;;;;7407340;19;19986;-63
2022/12/25 10:50:52;;;;;;;1.70;0.47;;;18.00;65.80;;;;;;7406811;19;20315;-64
2022/12/25 10:53:24;;;;;;;1.45;0.68;;;18.00;65.80;;;;;;7407291;19;20289;-63
2022/12/25 10:55:58;;;;;;;1.42;0.20;;;18.00;65.90;;;;;;7406930;19;19926;-64
2022/12/25 10:58:27;;;;;;;2.05;0.57;;;18.00;66.00;;;;;;7407436;19;19921;-63
2022/12/25 11:01:00;;;;;;;1.20;0.55;;;17.90;66.00;;;;;;7405507;19;19982;-63
2022/12/25 11:03:36;;;;;;;1.33;0.35;;;17.90;66.10;;;;;;7409040;19;19948;-63
2022/12/25 11:06:06;;;;;;;1.90;0.65;;;17.90;66.10;;;;;;7406980;19;19917;-63
2022/12/25 11:08:43;;;;;;;1.58;0.35;;;17.80;66.10;;;;;;7407587;19;19919;-63
2022/12/25 11:11:21;;;;;;;1.55;0.55;;;17.90;66.20;;;;;;7407097;19;19926;-63
2022/12/25 11:13:52;;;;;;;1.70;0.50;;;17.80;66.30;;;;;;7405713;19;19924;-63
2022/12/25 11:16:32;;;;;;;1.90;0.30;;;17.80;66.30;;;;;;7404632;19;19922;-63
2022/12/25 11:19:02;;;;;;;2.03;0.43;;;17.80;66.40;;;;;;7406422;19;19910;-63
2022/12/25 11:21:32;;;;;;;1.63;0.57;;;17.80;66.40;;;;;;7406751;19;19933;-63
2022/12/25 11:24:03;;;;;;;1.73;0.80;;;17.80;66.50;;;;;;7404612;19;19926;-63
2022/12/25 11:26:38;;;;;;;1.35;0.40;;;17.80;66.40;;;;;;7406001;19;19922;-63
2022/12/25 11:29:24;;;;;;;2.10;0.55;;;17.80;66.40;;;;;;7403939;19;19929;-63
2022/12/25 11:32:07;;;;;;;2.28;0.90;;;17.80;66.40;;;;;;7406195;19;20240;-63
2022/12/25 11:34:42;;;;;;;1.85;0.90;;;17.80;66.40;;;;;;7410060;19;20327;-63
2022/12/25 11:37:17;;;;;;;1.90;0.47;;;17.90;66.40;;;;;;7406135;19;19918;-63
2022/12/25 11:39:46;;;;;;;1.27;0.63;;;17.90;66.40;;;;;;7405641;19;20326;-63
2022/12/25 11:42:22;;;;;;;1.38;0.82;;;17.90;66.40;;;;;;7405854;19;20313;-63
2022/12/25 11:44:55;;;;;;;1.80;0.65;;;17.90;66.30;;;;;;7403681;19;19918;-63
2022/12/25 11:47:32;;;;;;;1.13;0.32;;;18.00;66.20;;;;;;7405821;19;19918;-63
2022/12/25 11:50:07;;;;;;;1.25;0.43;;;18.00;66.20;;;;;;7405679;19;19915;-63
2022/12/25 11:52:40;;;;;;;2.00;0.70;;;18.10;66.10;;;;;;7405677;19;20335;-63
2022/12/25 11:55:19;;;;;;;2.25;0.85;;;18.20;66.10;;;;;;7406165;19;19938;-63
2022/12/25 11:57:54;;;;;;;1.23;0.40;;;18.20;66.00;;;;;;7405480;19;19918;-63
2022/12/25 12:00:24;;;;;;;1.55;0.60;;;18.20;65.90;;;;;;7405832;19;19954;-63
2022/12/25 12:03:00;;;;;;;2.13;1.17;;;18.20;65.90;;;;;;7405931;19;19922;-63
2022/12/25 12:05:35;;;;;;;1.38;0.30;;;18.30;65.90;;;;;;7405022;19;19922;-63
2022/12/25 12:08:07;;;;;;;1.42;0.28;;;18.20;65.80;;;;;;7405539;19;19919;-63
2022/12/25 12:10:48;;;;;;;1.58;0.52;;;18.30;65.90;;;;;;7404120;19;19919;-63
2022/12/25 12:13:40;;;;;;;1.40;0.65;;;18.30;65.90;;;;;;7405049;19;19919;-63
2022/12/25 12:16:10;;;;;;;1.50;0.63;;;18.30;65.80;;;;;;7404491;19;19944;-63
2022/12/25 12:18:53;;;;;;;1.60;0.32;;;18.20;65.80;;;;;;7404603;19;19942;-63
2022/12/25 12:21:26;;;;;;;2.38;1.25;;;18.20;65.80;;;;;;7404931;19;19974;-63
2022/12/25 12:24:02;;;;;;;1.63;1.05;;;18.20;65.80;;;;;;7403766;19;19946;-63
2022/12/25 12:26:36;;;;;;;1.70;0.90;;;18.20;65.80;;;;;;7404816;19;19921;-63
2022/12/25 12:29:09;;;;;;;1.05;0.40;;;18.20;65.80;;;;;;7401784;19;19950;-63
2022/12/25 12:31:41;;;;;;;1.58;0.43;;;18.20;65.90;;;;;;7405523;19;19986;-63
2022/12/25 12:34:24;;;;;;;1.33;0.40;;;18.20;65.90;;;;;;7403924;19;20492;-63
2022/12/25 12:37:00;;;;;;;1.48;0.55;;;18.20;65.90;;;;;;7403873;19;19910;-63
2022/12/25 12:39:40;;;;;;;1.17;0.60;;;18.10;65.90;;;;;;7403897;19;20252;-63
2022/12/25 12:42:15;;;;;;;1.13;0.35;;;18.10;66.00;;;;;;7404317;19;19914;-63
2022/12/25 12:44:45;;;;;;;1.50;1.27;;;18.10;66.10;;;;;;7402875;19;19918;-63
2022/12/25 12:47:32;;;;;;;1.65;0.95;;;18.10;66.00;;;;;;7403438;19;19910;-63
2022/12/25 12:50:05;;;;;;;2.03;0.60;;;18.00;66.00;;;;;;7403596;19;19934;-63
2022/12/25 12:52:36;;;;;;;1.60;0.80;;;18.00;66.10;;;;;;7403936;19;19919;-63
2022/12/25 12:55:11;;;;;;;1.15;0.70;;;18.00;66.20;;;;;;7401862;19;20289;-63
2022/12/25 12:57:41;;;;;;;1.15;0.35;;;17.90;66.20;;;;;;7403899;19;19915;-63
2022/12/25 13:00:20;;;;;;;1.83;1.23;;;17.90;66.20;;;;;;7403402;19;19910;-63
2022/12/25 13:03:14;;;;;;;2.95;0.52;;;17.90;66.40;;;;;;7407298;19;19926;-63
2022/12/25 13:05:51;;;;;;;1.33;0.25;;;17.90;66.50;;;;;;7403792;19;20011;-63
2022/12/25 13:08:36;;;;;;;1.67;0.35;;;17.80;66.50;;;;;;7403430;19;19918;-63
2022/12/25 13:11:11;;;;;;;1.23;0.43;;;17.80;66.50;;;;;;7403394;19;19922;-63
2022/12/25 13:13:43;;;;;;;1.42;0.55;;;17.80;66.60;;;;;;7402378;19;20298;-63
2022/12/25 13:16:24;;;;;;;1.85;0.63;;;17.80;66.60;;;;;;7402674;19;19938;-63
2022/12/25 13:18:55;;;;;;;0.95;0.20;;;17.70;66.60;;;;;;7403010;19;19928;-63
2022/12/25 13:21:29;;;;;;;1.45;0.40;;;17.80;66.60;;;;;;7402701;19;20581;-62
2022/12/25 13:24:01;;;;;;;1.20;0.65;;;17.80;66.70;;;;;;7407686;19;19938;-63
2022/12/25 13:26:31;;;;;;;1.35;0.55;;;17.80;67.30;;;;;;7409541;19;19919;-63
2022/12/25 13:29:00;;;;;;;1.20;0.20;;;17.80;66.70;;;;;;7408249;19;19934;-63
2022/12/25 13:31:32;;;;;;;1.73;0.70;;;17.80;66.70;;;;;;7409365;19;19914;-63
2022/12/25 13:34:06;;;;;;;1.38;0.80;;;17.80;66.70;;;;;;7409465;19;19928;-63
2022/12/25 13:36:41;;;;;;;1.27;0.30;;;17.80;66.70;;;;;;7407628;19;19918;-63
2022/12/25 13:39:15;;;;;;;1.30;0.28;;;17.90;66.60;;;;;;7408832;19;19914;-63
2022/12/25 13:44:31;;;;;;;0.80;0.32;;;18.00;66.50;;;;;;7407754;19;19914;-63
2022/12/25 13:47:16;;;;;;;1.10;0.20;;;18.00;66.40;;;;;;7409548;19;19915;-63
2022/12/25 13:49:47;;;;;;;1.38;0.82;;;18.10;66.40;;;;;;7409166;19;20250;-63
2022/12/25 13:52:22;;;;;;;2.03;1.05;;;18.10;66.30;;;;;;7409120;19;19931;-63
2022/12/25 13:55:00;;;;;;;0.93;0.25;;;18.20;66.20;;;;;;7409103;19;19919;-63
2022/12/25 13:57:34;;;;;;;1.65;0.40;;;18.20;66.20;;;;;;7409119;19;19919;-63
2022/12/25 14:00:04;;;;;;;2.05;0.88;;;18.30;66.20;;;;;;7410464;19;19915;-63
2022/12/25 14:02:38;;;;;;;1.50;0.70;;;18.30;66.10;;;;;;7408376;19;19938;-63
2022/12/25 14:05:25;;;;;;;1.38;0.88;;;18.30;66.10;;;;;;7406493;19;19926;-63
2022/12/25 14:08:02;;;;;;;1.15;0.73;;;18.30;66.00;;;;;;7406597;19;19915;-63
2022/12/25 14:10:35;;;;;;;1.30;0.32;;;18.30;66.00;;;;;;7408602;19;19933;-63
2022/12/25 14:13:08;;;;;;;1.20;0.40;;;18.30;66.00;;;;;;7408637;19;19970;-64
2022/12/25 14:15:37;;;;;;;1.52;0.80;;;18.30;66.00;;;;;;7408202;19;19978;-63
2022/12/25 14:18:07;;;;;;;;;;;18.30;66.00;;;;;;7410953;19;19915;-63
2022/12/25 14:20:41;;;;;;;1.05;0.20;;;18.30;66.20;;;;;;7408400;19;19921;-63
2022/12/25 14:23:17;;;;;;;1.65;0.98;;;18.30;66.00;;;;;;7407610;19;19919;-63
2022/12/25 14:25:47;;;;;;;;;;;18.20;66.00;;;;;;7410995;19;19926;-63
2022/12/25 14:28:23;;;;;;;1.10;0.60;;;18.20;66.10;;;;;;7407222;19;19949;-63
2022/12/25 14:30:52;;;;;;;1.42;0.45;;;18.20;66.00;;;;;;7409509;19;19992;-63
2022/12/25 14:33:26;;;;;;;2.22;0.52;;;18.20;66.00;;;;;;7407300;19;19926;-63
2022/12/25 14:35:55;;;;;;;1.02;0.38;;;18.20;66.10;;;;;;7406354;19;19922;-63
2022/12/25 14:38:31;;;;;;;1.35;0.60;;;18.10;66.10;;;;;;7407508;19;19945;-63
2022/12/25 14:41:02;;;;;;;1.50;0.63;;;18.10;66.10;;;;;;7408091;19;19946;-63
2022/12/25 14:43:33;;;;;;;1.50;0.45;;;18.10;66.20;;;;;;7407662;19;20001;-63
2022/12/25 14:46:05;;;;;;;1.15;0.65;;;18.10;66.30;;;;;;7407368;19;19927;-63
2022/12/25 14:48:35;;;;;;;0.98;0.22;;;18.10;66.40;;;;;;7407819;19;19968;-63
2022/12/25 14:51:07;;;;;;;1.10;0.70;;;18.00;66.40;;;;;;7407092;19;19914;-63
2022/12/25 14:53:41;;;;;;;0.95;0.35;;;17.90;66.50;;;;;;7407657;19;19915;-63
2022/12/25 14:56:11;;;;;;;0.93;0.50;;;17.90;66.50;;;;;;7407257;19;20321;-62
2022/12/25 14:58:43;;;;;;;1.58;0.77;;;17.90;66.50;;;;;;7406986;19;20383;-63
2022/12/25 15:01:22;;;;;;;1.65;0.88;;;17.90;66.60;;;;;;7409290;19;19922;-63
2022/12/25 15:03:51;;;;;;;1.25;0.65;;;17.90;66.70;;;;;;7406244;19;19918;-63